Accueil
METAR-TAF:

METAR-TAF

Aéroports :

Plate-forme pétrolière

Hoorn-a, Pays-Bas

latitude: 52-55-05N, longitude: 4-09-01E, altitude: 41 m

Observation

Le bulletin a été fait il y a 26 minutes, à 07:25 UTC
Vent 20 kt de sud
Température 15°C
Humidité 94%
Pression 1016 hPa
Visibilité: 6000 m
Nuages fragmentés à une hauteur de 200 ft
Nuages fragmentés à une hauteur de 400 ft
Nuages fragmentés à une hauteur de 3700 ft

METAR: EHQE 180725Z AUTO 19020KT 6000 BKN002 BKN004 BKN037 15/14 Q1016 W///H///

Heure: 09:51 (07:51 UTC)


TAF: absent

Observations et prévisions météorologiques de plus de 4000 aéroports (messages METAR et TAF).

Les stations disponibles sont représentées par des disques jaunes et rouges sur la carte.

Passer la souris dessus pour voir le nom de la station.

Cliquer dessus pour voir les observations et prévisions météorologiques.

Pour changer de carte: cliquez sur les boutons verts avec une croix noire pour zoomer, sur le bouton vert avec un tiret pour effectuer un zoom arrière, ou sur les flèches vertes pour les cartes adjacentes.


METAR-TAF: